Time;durP1;ratioP1;P1;durP2;ratioP2;P2;SDS_P1;SDS_P2;PMS_P1;PMS_P2;Temp;Humidity;BMP_temperature;BMP_pressure;BME280_temperature;BME280_humidity;BME280_pressure;Samples;Min_cycle;Max_cycle;Signal;HPM_P1;HPM_P2
2023/02/02 00:04:34;;;;;;;;;;;;;;;17.57;29.72;95983.03;10470705;28;2037;-51
2023/02/02 00:09:34;;;;;;;;;;;;;;;17.50;29.69;95987.66;10463751;28;2073;-50
2023/02/02 00:14:34;;;;;;;;;;;;;;;17.46;29.68;95984.72;10454748;28;2061;-49
2023/02/02 00:19:35;;;;;;;;;;;;;;;17.47;29.51;95988.13;10464147;28;2050;-51
2023/02/02 00:24:35;;;;;;;;;;;;;;;17.44;29.49;95993.88;10426691;28;1996;-52
2023/02/02 00:29:35;;;;;;;;;;;;;;;17.37;29.66;95993.28;10417243;28;2000;-48
2023/02/02 00:34:35;;;;;;;;;;;;;;;17.37;29.52;95982.81;10419418;28;2124;-49
2023/02/02 00:39:36;;;;;;;;;;;;;;;17.35;29.62;95977.78;10426068;28;2020;-54
2023/02/02 00:49:55;;;;;;;;;;;;;;;17.28;29.61;95979.84;10416971;28;2055;-53
2023/02/02 00:54:55;;;;;;;;;;;;;;;17.26;29.47;95971.44;10438322;28;2000;-51
2023/02/02 00:59:55;;;;;;;;;;;;;;;17.22;29.43;95974.78;10415339;28;2004;-50
2023/02/02 01:04:56;;;;;;;;;;;;;;;17.19;29.49;95981.31;10429194;28;2119;-51
2023/02/02 01:09:56;;;;;;;;;;;;;;;17.17;29.35;95983.38;10402584;28;2023;-50
2023/02/02 01:14:56;;;;;;;;;;;;;;;17.15;29.36;95967.13;10427734;28;1949;-48
2023/02/02 01:19:57;;;;;;;;;;;;;;;17.11;29.40;95968.66;10426171;28;2034;-51
2023/02/02 01:24:57;;;;;;;;;;;;;;;17.08;29.45;95966.53;10423340;28;2121;-51
2023/02/02 01:29:57;;;;;;;;;;;;;;;17.06;29.42;95963.38;10421769;28;2033;-53
2023/02/02 01:34:57;;;;;;;;;;;;;;;17.02;29.58;95955.19;10420651;28;2063;-52
2023/02/02 01:39:58;;;;;;;;;;;;;;;16.99;29.36;95936.56;10429723;28;2020;-51
2023/02/02 01:44:58;;;;;;;;;;;;;;;16.96;29.32;95944.94;10424133;28;2043;-50
2023/02/02 01:49:58;;;;;;;;;;;;;;;16.93;29.48;95940.16;10420524;28;2042;-50
2023/02/02 01:55:00;;;;;;;;;;;;;;;16.92;29.40;95931.50;10429071;28;1972;-50
2023/02/02 02:00:00;;;;;;;;;;;;;;;16.89;29.54;95944.31;10431358;28;1997;-52
2023/02/02 02:05:01;;;;;;;;;;;;;;;16.86;29.43;95934.31;10411093;28;2106;-53
2023/02/02 02:10:01;;;;;;;;;;;;;;;16.85;29.42;95940.59;10406704;28;2056;-52
2023/02/02 02:31:51;;;;;;;;;;;;;;;16.71;29.50;95931.53;10415897;28;2042;-49
2023/02/02 02:36:54;;;;;;;;;;;;;;;16.72;29.39;95925.25;10418480;28;2143;-50
2023/02/02 02:41:56;;;;;;;;;;;;;;;16.68;29.39;95964.22;10419761;28;1996;-48
2023/02/02 02:46:56;;;;;;;;;;;;;;;16.66;29.73;95929.66;10406514;28;2126;-48
2023/02/02 02:51:56;;;;;;;;;;;;;;;16.65;29.48;95927.28;10405864;28;1992;-49
2023/02/02 02:57:00;;;;;;;;;;;;;;;16.63;29.53;95935.38;10417153;28;2044;-53
2023/02/02 03:02:01;;;;;;;;;;;;;;;16.62;29.55;95948.69;10398319;28;2001;-51
2023/02/02 03:07:06;;;;;;;;;;;;;;;16.60;29.47;95941.09;10412520;28;2416;-53
2023/02/02 03:12:06;;;;;;;;;;;;;;;16.56;29.42;95940.00;10426252;28;2094;-53
2023/02/02 03:17:07;;;;;;;;;;;;;;;16.57;29.70;95946.81;10400274;28;2086;-52
2023/02/02 03:22:07;;;;;;;;;;;;;;;16.54;29.85;95952.53;10422593;28;2047;-53
2023/02/02 03:27:07;;;;;;;;;;;;;;;16.55;29.65;95966.44;10419420;28;2118;-54
2023/02/02 03:32:07;;;;;;;;;;;;;;;16.52;29.99;95951.19;10415207;28;2058;-51
2023/02/02 03:37:08;;;;;;;;;;;;;;;16.52;29.92;95964.28;10424937;28;2068;-52
2023/02/02 03:42:08;;;;;;;;;;;;;;;16.54;29.93;95952.53;10424913;28;2031;-48
2023/02/02 03:47:08;;;;;;;;;;;;;;;16.53;29.80;95971.88;10416184;28;1950;-49
2023/02/02 03:52:08;;;;;;;;;;;;;;;16.58;29.70;95958.06;10427240;28;2176;-51
2023/02/02 03:57:09;;;;;;;;;;;;;;;16.59;29.71;95954.44;10422359;28;2049;-49
2023/02/02 04:02:09;;;;;;;;;;;;;;;16.59;29.74;95964.91;10421826;28;2084;-50
2023/02/02 04:07:09;;;;;;;;;;;;;;;16.63;29.64;95958.16;10419383;28;2365;-54
2023/02/02 04:12:09;;;;;;;;;;;;;;;16.60;29.69;95950.78;10426100;28;2032;-52
2023/02/02 04:17:10;;;;;;;;;;;;;;;16.62;29.66;95957.34;10424402;28;2039;-49
2023/02/02 04:22:10;;;;;;;;;;;;;;;16.66;29.65;95955.84;10417391;28;2077;-53
2023/02/02 04:27:11;;;;;;;;;;;;;;;16.66;29.43;95968.91;10432067;28;2468;-49
2023/02/02 04:32:13;;;;;;;;;;;;;;;16.67;29.48;95972.34;10427070;28;2031;-51
2023/02/02 04:37:13;;;;;;;;;;;;;;;16.69;29.46;95970.25;10400448;28;1939;-51
2023/02/02 04:42:13;;;;;;;;;;;;;;;16.71;29.43;95971.56;10401574;28;2007;-51
2023/02/02 04:47:14;;;;;;;;;;;;;;;16.71;29.50;95963.72;10424301;28;2130;-49
2023/02/02 04:52:14;;;;;;;;;;;;;;;16.70;29.57;95966.59;10419752;28;2103;-52
2023/02/02 04:57:16;;;;;;;;;;;;;;;16.73;29.48;95960.88;10418728;28;2036;-50
2023/02/02 05:02:16;;;;;;;;;;;;;;;16.72;29.51;95970.56;10428910;28;2003;-51
2023/02/02 05:07:17;;;;;;;;;;;;;;;16.74;29.48;95967.69;10425113;28;2184;-51
2023/02/02 05:12:17;;;;;;;;;;;;;;;16.78;29.51;95984.50;10419709;28;2147;-50
2023/02/02 05:17:17;;;;;;;;;;;;;;;16.77;29.63;95982.94;10423092;28;1986;-51
2023/02/02 05:22:17;;;;;;;;;;;;;;;16.81;29.67;95991.88;10426992;28;2010;-51
2023/02/02 05:27:18;;;;;;;;;;;;;;;16.86;29.77;95997.94;10422709;28;2359;-49
2023/02/02 05:32:18;;;;;;;;;;;;;;;17.00;29.57;95995.78;10426840;28;2172;-51
2023/02/02 05:37:18;;;;;;;;;;;;;;;17.04;29.51;95989.78;10417158;28;2110;-49
2023/02/02 05:42:19;;;;;;;;;;;;;;;17.15;29.35;95995.94;10414418;28;2119;-54
2023/02/02 05:47:20;;;;;;;;;;;;;;;17.21;29.32;95984.47;10426066;28;1999;-52
2023/02/02 05:52:21;;;;;;;;;;;;;;;17.27;29.49;95978.22;10413639;28;2055;-52
2023/02/02 05:57:21;;;;;;;;;;;;;;;17.32;29.30;95986.16;10403095;28;2116;-52
2023/02/02 06:02:21;;;;;;;;;;;;;;;17.37;29.26;95983.56;10398263;28;2086;-52
2023/02/02 06:07:21;;;;;;;;;;;;;;;17.43;29.30;95987.84;10418514;28;2181;-53
2023/02/02 06:12:22;;;;;;;;;;;;;;;17.49;29.10;96004.41;10416375;28;2035;-49
2023/02/02 06:17:22;;;;;;;;;;;;;;;17.52;29.23;96001.31;10426981;28;2128;-49
2023/02/02 06:22:22;;;;;;;;;;;;;;;17.59;29.13;96001.91;10412466;28;2031;-50
2023/02/02 06:27:23;;;;;;;;;;;;;;;17.60;29.10;95988.53;10420151;28;2145;-51
2023/02/02 06:32:23;;;;;;;;;;;;;;;17.63;29.09;95974.97;10416257;28;2050;-52
2023/02/02 06:37:23;;;;;;;;;;;;;;;17.68;28.94;95990.72;10417604;28;2051;-53
2023/02/02 06:42:23;;;;;;;;;;;;;;;17.75;28.97;95993.13;10426345;28;2009;-53
2023/02/02 06:47:24;;;;;;;;;;;;;;;17.76;28.94;96005.22;10419128;28;2200;-53
2023/02/02 06:52:24;;;;;;;;;;;;;;;17.80;28.92;96020.19;10417881;28;2136;-51
2023/02/02 06:57:24;;;;;;;;;;;;;;;17.85;28.86;96028.09;10416320;28;2113;-50
2023/02/02 07:02:25;;;;;;;;;;;;;;;17.86;28.90;96027.09;10420330;28;1969;-53
2023/02/02 07:07:25;;;;;;;;;;;;;;;17.93;28.75;96033.94;10416777;28;2062;-48
2023/02/02 07:12:25;;;;;;;;;;;;;;;17.93;28.90;96024.22;10415650;28;2037;-52
2023/02/02 07:17:26;;;;;;;;;;;;;;;17.97;28.80;96041.03;10421385;28;2051;-54
2023/02/02 07:22:26;;;;;;;;;;;;;;;17.99;28.83;96017.97;10429423;28;1914;-50
2023/02/02 07:27:26;;;;;;;;;;;;;;;18.03;28.75;96050.56;10409940;28;2027;-53
2023/02/02 07:32:27;;;;;;;;;;;;;;;18.06;28.70;96059.75;10419038;28;1969;-54
2023/02/02 07:37:27;;;;;;;;;;;;;;;18.10;28.59;96068.69;10418488;28;2135;-54
2023/02/02 07:42:27;;;;;;;;;;;;;;;18.10;28.81;96081.81;10418467;28;2051;-53
2023/02/02 07:47:27;;;;;;;;;;;;;;;18.13;28.57;96078.72;10423521;28;2054;-54
2023/02/02 07:52:28;;;;;;;;;;;;;;;18.16;28.60;96081.63;10422340;28;1970;-50
2023/02/02 07:57:28;;;;;;;;;;;;;;;18.19;28.49;96080.31;10423949;28;2193;-50
2023/02/02 08:02:29;;;;;;;;;;;;;;;18.15;28.66;96087.13;10423728;28;2033;-48
2023/02/02 08:07:31;;;;;;;;;;;;;;;18.19;28.47;96085.56;10427670;28;2017;-53
2023/02/02 08:12:31;;;;;;;;;;;;;;;18.20;28.48;96076.66;10431847;28;2087;-51
2023/02/02 08:17:31;;;;;;;;;;;;;;;18.16;28.63;96102.59;10430796;28;2072;-49
2023/02/02 08:22:31;;;;;;;;;;;;;;;18.16;28.53;96096.56;10426139;28;1963;-50
2023/02/02 08:27:32;;;;;;;;;;;;;;;18.13;28.62;96112.81;10433610;28;2087;-49
2023/02/02 08:32:32;;;;;;;;;;;;;;;18.09;28.66;96120.41;10431427;28;1964;-50
2023/02/02 08:37:32;;;;;;;;;;;;;;;18.07;28.69;96121.69;10432995;28;2073;-47
2023/02/02 08:42:32;;;;;;;;;;;;;;;18.00;28.84;96140.22;10426851;28;2149;-48
2023/02/02 08:47:33;;;;;;;;;;;;;;;17.98;28.80;96136.28;10416819;28;2035;-51
2023/02/02 08:52:33;;;;;;;;;;;;;;;17.94;28.76;96108.94;10426674;28;2178;-48
2023/02/02 08:57:33;;;;;;;;;;;;;;;17.89;28.89;96159.50;10424600;28;2120;-46
2023/02/02 09:02:34;;;;;;;;;;;;;;;17.86;28.77;96128.56;10426652;28;2016;-48
2023/02/02 09:07:34;;;;;;;;;;;;;;;17.82;29.38;96144.00;10429442;28;2073;-47
2023/02/02 09:12:34;;;;;;;;;;;;;;;17.83;30.77;96147.41;10423314;28;2009;-53
2023/02/02 09:17:35;;;;;;;;;;;;;;;17.85;31.10;96143.50;10421158;28;2051;-50
2023/02/02 09:22:35;;;;;;;;;;;;;;;17.93;31.44;96144.09;10423880;28;1966;-51
2023/02/02 09:27:36;;;;;;;;;;;;;;;18.09;31.33;96166.81;10424543;28;1990;-49
2023/02/02 09:32:36;;;;;;;;;;;;;;;18.29;30.17;96144.19;10418068;28;2011;-51
2023/02/02 09:37:36;;;;;;;;;;;;;;;18.45;29.97;96145.13;10422415;28;2053;-49
2023/02/02 09:42:43;;;;;;;;;;;;;;;18.62;29.50;96159.72;10427089;28;2003;-52
2023/02/02 09:47:53;;;;;;;;;;;;;;;18.78;29.36;96136.97;10422186;28;2039;-50
2023/02/02 09:52:53;;;;;;;;;;;;;;;18.92;29.49;96153.88;10425624;28;1925;-50
2023/02/02 09:57:54;;;;;;;;;;;;;;;19.04;29.00;96162.34;10417703;28;2572;-50
2023/02/02 10:02:57;;;;;;;;;;;;;;;19.14;29.33;96157.19;10397518;28;2292;-52
2023/02/02 10:07:58;;;;;;;;;;;;;;;19.23;29.01;96155.66;10419971;28;1955;-50
2023/02/02 10:13:02;;;;;;;;;;;;;;;19.28;29.09;96166.19;10409821;28;2197;-51
2023/02/02 10:18:17;;;;;;;;;;;;;;;19.36;28.79;96144.72;10412592;28;2042;-48
2023/02/02 10:23:22;;;;;;;;;;;;;;;19.44;28.66;96144.22;10432274;28;1977;-51
2023/02/02 10:28:26;;;;;;;;;;;;;;;19.53;28.67;96160.31;10460505;28;1988;-50
2023/02/02 10:33:38;;;;;;;;;;;;;;;19.61;28.67;96151.13;10463536;28;2073;-52
2023/02/02 10:38:45;;;;;;;;;;;;;;;19.71;28.55;96141.44;10465590;28;2032;-51
2023/02/02 10:43:53;;;;;;;;;;;;;;;19.78;28.65;96149.88;10464564;28;2045;-50
2023/02/02 10:48:58;;;;;;;;;;;;;;;19.86;28.64;96159.09;10468721;28;2082;-49
2023/02/02 10:53:58;;;;;;;;;;;;;;;19.92;28.43;96145.72;10462723;28;2044;-53
2023/02/02 10:59:06;;;;;;;;;;;;;;;19.96;28.53;96127.56;10444738;28;2096;-48
2023/02/02 11:09:29;;;;;;;;;;;;;;;19.95;29.39;96147.81;10469718;28;2046;-50
2023/02/02 11:14:38;;;;;;;;;;;;;;;19.90;30.28;96145.19;10461250;28;2036;-54
2023/02/02 11:19:38;;;;;;;;;;;;;;;19.85;32.56;96146.97;10469087;28;2116;-58
2023/02/02 11:24:39;;;;;;;;;;;;;;;19.86;33.38;96145.94;10432823;28;2204;-50
2023/02/02 11:29:39;;;;;;;;;;;;;;;19.87;33.24;96158.84;10426856;28;2097;-50
2023/02/02 11:34:39;;;;;;;;;;;;;;;19.84;34.07;96155.94;10427975;28;2016;-50
2023/02/02 11:39:40;;;;;;;;;;;;;;;19.82;34.06;96160.66;10409794;28;2266;-54
2023/02/02 11:44:45;;;;;;;;;;;;;;;19.81;34.43;96145.91;10425465;28;1945;-54
2023/02/02 11:49:45;;;;;;;;;;;;;;;19.77;34.24;96140.41;10402480;28;2309;-56
2023/02/02 11:54:49;;;;;;;;;;;;;;;19.75;34.02;96139.88;10416047;28;2152;-56
2023/02/02 11:59:50;;;;;;;;;;;;;;;19.72;34.20;96148.25;10402113;28;2219;-56
2023/02/02 12:05:10;;;;;;;;;;;;;;;19.73;34.56;96146.41;10422418;28;1975;-54
2023/02/02 12:10:10;;;;;;;;;;;;;;;19.70;34.41;96160.09;10413634;28;2070;-55
2023/02/02 12:15:11;;;;;;;;;;;;;;;19.72;34.07;96155.38;10424449;28;2059;-51
2023/02/02 12:20:15;;;;;;;;;;;;;;;19.89;34.04;96138.31;10418943;28;2051;-53
2023/02/02 12:25:34;;;;;;;;;;;;;;;20.02;34.13;96137.03;10454817;28;1949;-53
2023/02/02 12:30:37;;;;;;;;;;;;;;;20.20;33.97;96134.72;10453350;28;2098;-53
2023/02/02 12:35:48;;;;;;;;;;;;;;;20.30;33.35;96127.91;10466755;28;2031;-52
2023/02/02 12:40:58;;;;;;;;;;;;;;;20.42;32.76;96134.50;10466874;28;2058;-53
2023/02/02 12:46:08;;;;;;;;;;;;;;;20.53;33.58;96146.59;10456047;28;1957;-55
2023/02/02 12:51:16;;;;;;;;;;;;;;;20.62;33.29;96152.94;10460583;28;2437;-52
2023/02/02 12:56:22;;;;;;;;;;;;;;;20.72;32.94;96146.84;10455438;28;2145;-54
2023/02/02 13:01:22;;;;;;;;;;;;;;;20.77;32.46;96138.97;10455231;28;1986;-54
2023/02/02 13:06:28;;;;;;;;;;;;;;;20.81;32.64;96156.59;10454403;28;2085;-53
2023/02/02 13:11:43;;;;;;;;;;;;;;;20.87;32.87;96142.38;10465007;28;2046;-53
2023/02/02 13:16:47;;;;;;;;;;;;;;;20.90;32.37;96160.28;10458321;28;1992;-51
2023/02/02 13:21:47;;;;;;;;;;;;;;;20.95;32.75;96183.19;10451839;28;2005;-55
2023/02/02 13:26:47;;;;;;;;;;;;;;;21.05;33.13;96199.03;10422576;28;2050;-51
2023/02/02 13:31:58;;;;;;;;;;;;;;;21.10;33.09;96198.25;10398999;28;2124;-52
2023/02/02 13:37:01;;;;;;;;;;;;;;;21.16;33.12;96191.91;10397818;28;2124;-52
2023/02/02 13:42:01;;;;;;;;;;;;;;;21.20;33.38;96199.03;10406855;28;1991;-55
2023/02/02 13:47:09;;;;;;;;;;;;;;;21.26;33.36;96207.69;10413872;28;1992;-52
2023/02/02 13:52:09;;;;;;;;;;;;;;;21.31;33.74;96212.97;10408404;28;2021;-50
2023/02/02 13:57:10;;;;;;;;;;;;;;;21.36;33.58;96205.03;10431064;28;2090;-53
2023/02/02 14:02:19;;;;;;;;;;;;;;;21.37;33.38;96201.38;10423996;28;1919;-57
2023/02/02 14:07:25;;;;;;;;;;;;;;;21.35;32.85;96209.53;10409205;28;1992;-56
2023/02/02 14:12:29;;;;;;;;;;;;;;;21.42;33.15;96219.78;10412251;28;2002;-54
2023/02/02 14:17:29;;;;;;;;;;;;;;;21.46;33.02;96221.63;10406248;28;2083;-54
2023/02/02 14:22:40;;;;;;;;;;;;;;;21.51;33.50;96228.75;10417637;28;2073;-54
2023/02/02 14:27:41;;;;;;;;;;;;;;;21.54;33.21;96241.38;10418324;28;2030;-54
2023/02/02 14:32:41;;;;;;;;;;;;;;;21.57;33.09;96230.31;10417669;28;2047;-56
2023/02/02 14:38:17;;;;;;;;;;;;;;;21.61;32.90;96244.56;10434210;28;2026;-56
2023/02/02 14:48:37;;;;;;;;;;;;;;;21.67;33.21;96251.41;10426175;28;1950;-55
2023/02/02 14:53:38;;;;;;;;;;;;;;;21.69;33.17;96254.56;10409270;28;1994;-55
2023/02/02 14:58:38;;;;;;;;;;;;;;;21.72;33.37;96251.41;10421125;28;2047;-50
2023/02/02 15:03:42;;;;;;;;;;;;;;;21.73;33.06;96251.13;10423850;28;1951;-56
2023/02/02 15:08:43;;;;;;;;;;;;;;;21.75;33.14;96250.84;10434245;28;2017;-56
2023/02/02 15:13:43;;;;;;;;;;;;;;;21.77;33.10;96260.06;10440564;28;2060;-55
2023/02/02 15:18:44;;;;;;;;;;;;;;;21.79;32.82;96265.88;10449350;28;2232;-56
2023/02/02 15:23:44;;;;;;;;;;;;;;;21.80;32.85;96264.03;10464719;28;2139;-57
2023/02/02 15:29:04;;;;;;;;;;;;;;;21.82;32.55;96275.13;10471387;28;2100;-53
2023/02/02 15:34:14;;;;;;;;;;;;;;;21.84;32.87;96294.13;10499015;28;2128;-56
2023/02/02 15:39:33;;;;;;;;;;;;;;;21.74;32.68;96302.06;10475834;28;2157;-56
2023/02/02 15:44:34;;;;;;;;;;;;;;;21.79;31.98;96294.09;10468124;28;2008;-54
2023/02/02 15:49:34;;;;;;;;;;;;;;;21.80;31.97;96285.91;10469148;28;2147;-53
2023/02/02 15:54:36;;;;;;;;;;;;;;;21.82;33.01;96312.09;10469076;28;2328;-53
2023/02/02 15:59:38;;;;;;;;;;;;;;;21.81;32.82;96307.81;10465320;28;2060;-54
2023/02/02 16:04:39;;;;;;;;;;;;;;;21.88;36.65;96331.34;10470213;28;2038;-54
2023/02/02 16:09:40;;;;;;;;;;;;;;;21.98;39.56;96340.03;10478283;28;2031;-54
2023/02/02 16:14:40;;;;;;;;;;;;;;;22.03;40.66;96342.63;10478025;28;2085;-54
2023/02/02 16:19:41;;;;;;;;;;;;;;;22.03;41.94;96342.63;10469504;28;2087;-53
2023/02/02 16:24:43;;;;;;;;;;;;;;;22.01;41.65;96328.13;10426209;28;2063;-50
2023/02/02 16:29:43;;;;;;;;;;;;;;;21.95;41.67;96359.03;10409888;28;2033;-55
2023/02/02 16:34:44;;;;;;;;;;;;;;;21.90;42.58;96363.53;10425717;28;2071;-54
2023/02/02 16:39:44;;;;;;;;;;;;;;;21.85;42.05;96373.03;10427154;28;2027;-54
2023/02/02 16:44:47;;;;;;;;;;;;;;;21.84;42.25;96375.94;10417947;28;2224;-53
2023/02/02 16:49:48;;;;;;;;;;;;;;;21.80;42.91;96388.84;10429091;28;1981;-55
2023/02/02 16:54:49;;;;;;;;;;;;;;;21.76;42.37;96395.69;10423675;28;2005;-56
2023/02/02 16:59:50;;;;;;;;;;;;;;;21.73;42.28;96411.28;10432384;28;2058;-53
2023/02/02 17:04:51;;;;;;;;;;;;;;;21.64;42.88;96402.31;10423922;28;2043;-52
2023/02/02 17:10:08;;;;;;;;;;;;;;;21.57;42.27;96422.91;10421125;28;2216;-53
2023/02/02 17:15:14;;;;;;;;;;;;;;;21.50;42.25;96430.25;10400335;28;2194;-55
2023/02/02 17:20:15;;;;;;;;;;;;;;;21.42;43.01;96430.78;10416501;28;1967;-55
2023/02/02 17:25:16;;;;;;;;;;;;;;;21.34;42.34;96433.94;10423134;28;1989;-56
2023/02/02 17:30:17;;;;;;;;;;;;;;;21.28;42.31;96437.63;10419546;28;2065;-54
2023/02/02 17:35:21;;;;;;;;;;;;;;;21.18;42.43;96441.06;10426967;28;2152;-53
2023/02/02 17:40:21;;;;;;;;;;;;;;;21.11;42.05;96464.22;10431888;28;1935;-53
2023/02/02 17:45:27;;;;;;;;;;;;;;;21.05;42.72;96457.34;10423326;28;2059;-53
2023/02/02 17:50:28;;;;;;;;;;;;;;;20.98;43.40;96470.72;10428653;28;2043;-53
2023/02/02 17:55:32;;;;;;;;;;;;;;;20.92;42.49;96469.13;10423589;28;1930;-53
2023/02/02 18:00:32;;;;;;;;;;;;;;;20.86;42.19;96470.16;10416636;28;2523;-54
2023/02/02 18:05:32;;;;;;;;;;;;;;;20.80;42.80;96487.00;10418700;28;2190;-50
2023/02/02 18:10:34;;;;;;;;;;;;;;;20.64;43.32;96493.25;10424626;28;2122;-55
2023/02/02 18:15:35;;;;;;;;;;;;;;;20.53;42.52;96507.41;10421022;28;2044;-56
2023/02/02 18:20:35;;;;;;;;;;;;;;;20.40;42.45;96512.34;10423718;28;2032;-57
2023/02/02 18:25:36;;;;;;;;;;;;;;;20.28;42.34;96494.09;10417955;28;2102;-56
2023/02/02 18:30:37;;;;;;;;;;;;;;;20.19;43.15;96514.00;10421273;28;1953;-55
2023/02/02 18:35:41;;;;;;;;;;;;;;;20.12;42.50;96526.59;10415807;28;1944;-55
2023/02/02 18:40:41;;;;;;;;;;;;;;;20.05;43.75;96536.53;10426400;28;2044;-57
2023/02/02 18:45:41;;;;;;;;;;;;;;;19.98;43.76;96542.00;10408117;28;2132;-56
2023/02/02 18:50:42;;;;;;;;;;;;;;;19.93;43.34;96543.78;10429549;28;2051;-57
2023/02/02 18:55:42;;;;;;;;;;;;;;;19.89;43.59;96542.69;10415042;28;2222;-57
2023/02/02 19:00:42;;;;;;;;;;;;;;;20.04;42.76;96545.47;10431016;28;2340;-55
2023/02/02 19:11:06;;;;;;;;;;;;;;;20.23;42.75;96546.72;10402618;28;2270;-54
2023/02/02 19:16:11;;;;;;;;;;;;;;;20.30;42.35;96543.88;10422640;28;2321;-50
2023/02/02 19:21:12;;;;;;;;;;;;;;;20.34;41.98;96558.88;10400959;28;2359;-54
2023/02/02 19:26:18;;;;;;;;;;;;;;;20.35;41.06;96571.03;10421614;28;2311;-53
2023/02/02 19:31:18;;;;;;;;;;;;;;;20.31;42.49;96569.94;10420008;28;1986;-52
2023/02/02 19:36:22;;;;;;;;;;;;;;;20.26;42.53;96572.53;10431538;28;2352;-52
2023/02/02 19:41:23;;;;;;;;;;;;;;;20.20;43.24;96569.06;10425723;28;2271;-52
2023/02/02 19:46:24;;;;;;;;;;;;;;;20.17;43.27;96568.75;10422266;28;2325;-52
2023/02/02 19:51:40;;;;;;;;;;;;;;;20.15;43.02;96590.03;10436141;28;2322;-54
2023/02/02 19:56:40;;;;;;;;;;;;;;;20.12;42.75;96592.38;10439729;28;2275;-53
2023/02/02 20:01:44;;;;;;;;;;;;;;;20.08;43.17;96604.47;10434670;28;2322;-49
2023/02/02 20:06:45;;;;;;;;;;;;;;;20.05;42.50;96599.72;10435909;28;2341;-51
2023/02/02 20:11:52;;;;;;;;;;;;;;;20.04;42.48;96603.38;10433142;28;2345;-52
2023/02/02 20:16:58;;;;;;;;;;;;;;;20.01;42.53;96614.41;10403666;28;2295;-54
2023/02/02 20:21:58;;;;;;;;;;;;;;;19.99;42.51;96605.97;10404709;28;2363;-53
2023/02/02 20:27:18;;;;;;;;;;;;;;;19.99;42.76;96622.53;10424744;28;2380;-54
2023/02/02 20:32:21;;;;;;;;;;;;;;;19.98;42.66;96623.59;10424005;28;2274;-53
2023/02/02 20:37:25;;;;;;;;;;;;;;;19.96;42.01;96622.25;10428107;28;2256;-51
2023/02/02 20:42:25;;;;;;;;;;;;;;;19.95;42.52;96621.44;10415339;28;1985;-53
2023/02/02 20:47:26;;;;;;;;;;;;;;;19.93;42.08;96615.63;10417615;28;2294;-51
2023/02/02 20:52:29;;;;;;;;;;;;;;;19.91;41.88;96624.81;10411169;28;2253;-54
2023/02/02 20:57:31;;;;;;;;;;;;;;;19.90;42.27;96625.88;10416364;28;2308;-52
2023/02/02 21:02:31;;;;;;;;;;;;;;;19.89;42.17;96626.91;10420169;28;2295;-52
2023/02/02 21:07:31;;;;;;;;;;;;;;;19.86;41.71;96633.47;10429172;28;2813;-53
2023/02/02 21:12:32;;;;;;;;;;;;;;;19.79;41.31;96639.94;10417143;28;2072;-52
2023/02/02 21:17:32;;;;;;;;;;;;;;;19.81;41.88;96645.75;10419964;28;2144;-55
2023/02/02 21:22:34;;;;;;;;;;;;;;;19.75;41.24;96646.75;10420213;28;2286;-51
2023/02/02 21:27:35;;;;;;;;;;;;;;;19.73;41.55;96651.47;10425562;28;2306;-52
2023/02/02 21:32:35;;;;;;;;;;;;;;;19.68;41.36;96652.19;10428221;28;2361;-50
2023/02/02 21:37:36;;;;;;;;;;;;;;;19.64;41.08;96656.34;10432931;28;1958;-54
2023/02/02 21:42:36;;;;;;;;;;;;;;;19.61;40.84;96651.59;10445350;28;2338;-51
2023/02/02 21:47:38;;;;;;;;;;;;;;;19.56;40.53;96662.03;10428986;28;2359;-54
2023/02/02 21:52:38;;;;;;;;;;;;;;;19.51;40.40;96648.84;10430853;28;2343;-50
2023/02/02 21:57:40;;;;;;;;;;;;;;;19.48;40.73;96646.69;10423289;28;1998;-54
2023/02/02 22:02:42;;;;;;;;;;;;;;;19.44;40.59;96640.34;10427193;28;2307;-54
2023/02/02 22:07:44;;;;;;;;;;;;;;;19.38;40.08;96643.94;10420962;28;2451;-53
2023/02/02 22:12:44;;;;;;;;;;;;;;;19.35;40.09;96639.97;10429598;28;2300;-51
2023/02/02 22:17:45;;;;;;;;;;;;;;;19.30;39.84;96644.34;10424609;28;2323;-50
2023/02/02 22:22:49;;;;;;;;;;;;;;;19.28;40.13;96652.47;10408226;28;2404;-50
2023/02/02 22:27:50;;;;;;;;;;;;;;;19.24;40.15;96661.91;10416450;28;2211;-50
2023/02/02 22:32:50;;;;;;;;;;;;;;;19.22;39.87;96660.53;10410494;28;2313;-51
2023/02/02 22:37:51;;;;;;;;;;;;;;;19.19;39.98;96667.06;10415941;28;1950;-52
2023/02/02 22:42:52;;;;;;;;;;;;;;;19.16;39.95;96677.28;10433351;28;2287;-51
2023/02/02 22:47:52;;;;;;;;;;;;;;;19.14;39.89;96676.72;10411231;28;1986;-51
2023/02/02 22:52:52;;;;;;;;;;;;;;;19.09;39.87;96674.00;10420579;28;2243;-50
2023/02/02 22:57:53;;;;;;;;;;;;;;;19.07;39.63;96686.59;10414978;28;2277;-51
2023/02/02 23:02:53;;;;;;;;;;;;;;;19.05;39.80;96692.09;10418101;28;2338;-49
2023/02/02 23:07:53;;;;;;;;;;;;;;;19.01;39.55;96696.25;10421508;28;2116;-50
2023/02/02 23:12:54;;;;;;;;;;;;;;;18.98;39.40;96699.34;10421163;28;2296;-49
2023/02/02 23:17:54;;;;;;;;;;;;;;;18.94;39.66;96703.50;10420509;28;2342;-50
2023/02/02 23:22:55;;;;;;;;;;;;;;;18.93;38.91;96696.66;10441155;28;2665;-54
2023/02/02 23:27:55;;;;;;;;;;;;;;;18.90;39.02;96697.13;10462703;28;2334;-54
2023/02/02 23:32:55;;;;;;;;;;;;;;;18.87;39.06;96695.00;10463371;28;2018;-48
2023/02/02 23:37:55;;;;;;;;;;;;;;;18.85;38.98;96693.63;10471312;28;2198;-53
2023/02/02 23:42:56;;;;;;;;;;;;;;;18.82;38.98;96697.53;10465962;28;2288;-53
2023/02/02 23:47:56;;;;;;;;;;;;;;;18.79;38.77;96676.19;10441089;28;2347;-53
2023/02/02 23:52:56;;;;;;;;;;;;;;;18.77;38.78;96668.56;10436301;28;2328;-54
2023/02/02 23:57:56;;;;;;;;;;;;;;;18.74;38.70;96669.03;10471446;28;2322;-54
